createdAt,value
2018-12-15T00:00:58.099Z,1.70
2018-12-15T00:03:29.766Z,1.80
2018-12-15T00:06:01.945Z,1.80
2018-12-15T00:08:35.732Z,1.70
2018-12-15T00:11:03.206Z,1.80
2018-12-15T00:13:30.660Z,1.70
2018-12-15T00:15:58.131Z,1.70
2018-12-15T00:18:25.569Z,1.70
2018-12-15T00:20:53.529Z,1.80
2018-12-15T00:23:20.972Z,1.80
2018-12-15T00:25:48.447Z,1.80
2018-12-15T00:28:15.899Z,1.70
2018-12-15T00:30:43.355Z,1.80
2018-12-15T00:33:10.814Z,1.80
2018-12-15T00:35:38.250Z,1.80
2018-12-15T00:38:05.702Z,1.80
2018-12-15T00:40:33.215Z,1.80
2018-12-15T00:43:00.679Z,1.80
2018-12-15T00:45:28.118Z,1.80
2018-12-15T00:47:55.584Z,1.70
2018-12-15T00:50:24.330Z,1.70
2018-12-15T00:52:57.054Z,1.70
2018-12-15T00:55:27.884Z,1.70
2018-12-15T00:57:57.735Z,1.70
2018-12-15T01:00:26.095Z,1.70
2018-12-15T01:03:10.104Z,1.60
2018-12-15T01:05:54.654Z,1.70
2018-12-15T01:08:25.066Z,1.60
2018-12-15T01:11:08.586Z,1.60
2018-12-15T01:13:51.687Z,1.60
2018-12-15T01:16:34.674Z,1.70
2018-12-15T01:19:02.169Z,1.60
2018-12-15T01:21:29.614Z,1.60
2018-12-15T01:23:57.136Z,1.70
2018-12-15T01:26:24.665Z,1.60
2018-12-15T01:28:52.111Z,1.60
2018-12-15T01:31:19.571Z,1.60
2018-12-15T01:33:47.007Z,1.70
2018-12-15T01:36:14.455Z,1.60
2018-12-15T01:38:41.889Z,1.60
2018-12-15T01:41:09.344Z,1.60
2018-12-15T01:43:36.887Z,1.60
2018-12-15T01:46:04.839Z,1.60
2018-12-15T01:48:32.373Z,1.60
2018-12-15T01:50:59.882Z,1.60
2018-12-15T01:53:39.645Z,1.50
2018-12-15T01:56:10.800Z,1.50
2018-12-15T01:58:42.426Z,1.50
2018-12-15T02:01:09.867Z,1.50
2018-12-15T02:03:37.310Z,1.40
2018-12-15T02:06:04.755Z,1.40
2018-12-15T02:08:32.215Z,1.50
2018-12-15T02:10:59.646Z,1.50
2018-12-15T02:13:27.098Z,1.50
2018-12-15T02:15:54.555Z,1.40
2018-12-15T02:18:22.141Z,1.40
2018-12-15T02:20:49.583Z,1.50
2018-12-15T02:23:17.040Z,1.50
2018-12-15T02:25:44.488Z,1.50
2018-12-15T02:28:11.934Z,1.40
2018-12-15T02:30:39.391Z,1.50
2018-12-15T02:33:06.860Z,1.40
2018-12-15T02:35:34.299Z,1.40
2018-12-15T02:38:01.758Z,1.40
2018-12-15T02:40:29.301Z,1.50
2018-12-15T02:42:56.744Z,1.40
2018-12-15T02:45:24.185Z,1.30
2018-12-15T02:47:51.632Z,1.40
2018-12-15T02:50:19.083Z,1.40
2018-12-15T02:52:46.527Z,1.40
2018-12-15T02:55:14.800Z,1.50
2018-12-15T02:57:42.247Z,1.40
2018-12-15T03:00:09.839Z,1.40
2018-12-15T03:02:37.282Z,1.40
2018-12-15T03:05:04.963Z,1.40
2018-12-15T03:07:32.402Z,1.30
2018-12-15T03:09:59.940Z,1.30
2018-12-15T03:12:27.371Z,1.30
2018-12-15T03:14:54.842Z,1.20
2018-12-15T03:17:22.362Z,1.30
2018-12-15T03:19:50.336Z,1.30
2018-12-15T03:22:17.779Z,1.30
2018-12-15T03:24:45.221Z,1.30
2018-12-15T03:27:12.802Z,1.30
2018-12-15T03:29:40.332Z,1.20
2018-12-15T03:32:07.785Z,1.20
2018-12-15T03:34:35.321Z,1.30
2018-12-15T03:37:02.770Z,1.20
2018-12-15T03:39:30.216Z,1.30
2018-12-15T03:41:57.731Z,1.20
2018-12-15T03:44:25.181Z,1.20
2018-12-15T03:46:52.645Z,1.20
2018-12-15T03:49:20.095Z,1.20
2018-12-15T03:51:47.531Z,1.20
2018-12-15T03:54:15.411Z,1.30
2018-12-15T03:56:43.136Z,1.30
2018-12-15T03:59:10.835Z,1.20
2018-12-15T04:01:38.394Z,1.20
2018-12-15T04:04:05.827Z,1.20
2018-12-15T04:06:33.262Z,1.20
2018-12-15T04:09:00.722Z,1.20
2018-12-15T04:11:28.421Z,1.20
2018-12-15T04:13:55.860Z,1.30
2018-12-15T04:16:23.299Z,1.30
2018-12-15T04:18:50.752Z,1.40
2018-12-15T04:21:18.198Z,1.40
2018-12-15T04:23:45.716Z,1.30
2018-12-15T04:26:13.176Z,1.30
2018-12-15T04:28:40.624Z,1.20
2018-12-15T04:31:08.064Z,1.20
2018-12-15T04:33:36.189Z,1.30
2018-12-15T04:36:21.278Z,1.40
2018-12-15T04:38:48.726Z,1.30
2018-12-15T04:41:16.166Z,1.30
2018-12-15T04:43:43.615Z,1.30
2018-12-15T04:46:12.413Z,1.30
2018-12-15T04:48:39.856Z,1.30
2018-12-15T04:51:07.310Z,1.40
2018-12-15T04:53:34.758Z,1.30
2018-12-15T04:56:02.214Z,1.30
2018-12-15T04:58:29.744Z,1.30
2018-12-15T05:00:57.178Z,1.30
2018-12-15T05:03:24.614Z,1.20
2018-12-15T05:05:52.066Z,1.30
2018-12-15T05:08:19.914Z,1.30
2018-12-15T05:10:47.390Z,1.20
2018-12-15T05:13:14.838Z,1.20
2018-12-15T05:15:42.299Z,1.30
2018-12-15T05:18:09.738Z,1.20
2018-12-15T05:20:37.189Z,1.30
2018-12-15T05:23:04.636Z,1.40
2018-12-15T05:25:32.079Z,1.40
2018-12-15T05:27:59.599Z,1.30
2018-12-15T05:30:27.885Z,1.30
2018-12-15T05:32:55.336Z,1.40
2018-12-15T05:35:22.783Z,1.30
2018-12-15T05:37:50.226Z,1.30
2018-12-15T05:40:17.668Z,1.20
2018-12-15T05:42:45.112Z,1.20
2018-12-15T05:45:12.706Z,1.20
2018-12-15T05:47:41.631Z,1.30
2018-12-15T05:50:09.137Z,1.30
2018-12-15T05:52:36.584Z,1.30
2018-12-15T05:55:04.023Z,1.30
2018-12-15T05:57:31.473Z,1.30
2018-12-15T05:59:58.914Z,1.30
2018-12-15T06:02:26.820Z,1.20
2018-12-15T06:04:55.262Z,1.30
2018-12-15T06:07:22.738Z,1.30
2018-12-15T06:09:50.187Z,1.20
2018-12-15T06:12:17.626Z,1.20
2018-12-15T06:14:45.083Z,1.20
2018-12-15T06:17:12.528Z,1.20
2018-12-15T06:19:40.021Z,1.20
2018-12-15T06:22:07.468Z,1.20
2018-12-15T06:24:34.919Z,1.20
2018-12-15T06:27:02.368Z,1.30
2018-12-15T06:29:29.842Z,1.20
2018-12-15T06:31:57.819Z,1.20
2018-12-15T06:34:25.272Z,1.20
2018-12-15T06:36:53.711Z,1.20
2018-12-15T06:39:21.161Z,1.20
2018-12-15T06:41:48.631Z,1.30
2018-12-15T06:44:16.746Z,1.30
2018-12-15T06:46:44.199Z,1.20
2018-12-15T06:49:11.643Z,1.30
2018-12-15T06:51:39.108Z,1.30
2018-12-15T06:54:09.507Z,1.30
2018-12-15T06:56:36.966Z,1.30
2018-12-15T06:59:05.065Z,1.30
2018-12-15T07:01:32.523Z,1.20
2018-12-15T07:03:59.954Z,1.20
2018-12-15T07:06:27.490Z,1.30
2018-12-15T07:08:54.937Z,1.30
2018-12-15T07:11:22.380Z,1.30
2018-12-15T07:13:49.829Z,1.30
2018-12-15T07:16:17.277Z,1.30
2018-12-15T07:18:45.074Z,1.20
2018-12-15T07:21:12.571Z,1.30
2018-12-15T07:23:40.019Z,1.30
2018-12-15T07:26:07.485Z,1.30
2018-12-15T07:28:34.930Z,1.30
2018-12-15T07:31:02.391Z,1.30
2018-12-15T07:33:29.844Z,1.30
2018-12-15T07:35:57.278Z,1.30
2018-12-15T07:38:24.734Z,1.30
2018-12-15T07:40:52.174Z,1.30
2018-12-15T07:43:19.891Z,1.30
2018-12-15T07:45:47.495Z,1.30
2018-12-15T07:48:17.667Z,1.30
2018-12-15T07:50:48.691Z,1.30
2018-12-15T07:53:16.131Z,1.30
2018-12-15T07:55:43.575Z,1.30
2018-12-15T07:58:11.210Z,1.40
2018-12-15T08:00:38.663Z,1.40
2018-12-15T08:03:06.099Z,1.40
2018-12-15T08:05:33.711Z,1.40
2018-12-15T08:08:01.147Z,1.40
2018-12-15T08:10:30.631Z,1.40
2018-12-15T08:13:00.034Z,1.30
2018-12-15T08:15:27.570Z,1.30
2018-12-15T08:17:55.005Z,1.40
2018-12-15T08:20:22.570Z,1.50
2018-12-15T08:22:50.023Z,1.50
2018-12-15T08:25:17.470Z,1.40
2018-12-15T08:27:44.921Z,1.40
2018-12-15T08:30:12.426Z,1.50
2018-12-15T08:32:39.865Z,1.50
2018-12-15T08:35:07.370Z,1.50
2018-12-15T08:37:34.827Z,1.50
2018-12-15T08:40:04.592Z,1.40
2018-12-15T08:42:32.095Z,1.50
2018-12-15T08:44:59.592Z,1.50
2018-12-15T08:47:28.824Z,1.50
2018-12-15T08:49:56.995Z,1.40
2018-12-15T08:52:24.507Z,2.10
2018-12-15T08:54:52.400Z,2.20
2018-12-15T08:57:24.202Z,2.20
2018-12-15T08:59:52.129Z,1.90
2018-12-15T09:02:19.614Z,1.60
2018-12-15T09:04:47.071Z,1.60
2018-12-15T09:07:14.540Z,1.60
2018-12-15T09:09:42.020Z,1.60
2018-12-15T09:12:09.451Z,1.60
2018-12-15T09:14:36.915Z,1.60
2018-12-15T09:17:04.363Z,1.60
2018-12-15T09:19:31.822Z,1.60
2018-12-15T09:21:59.275Z,1.60
2018-12-15T09:24:26.706Z,1.60
2018-12-15T09:26:54.171Z,1.60
2018-12-15T09:29:21.609Z,1.60
2018-12-15T09:31:49.064Z,1.60
2018-12-15T09:34:17.438Z,1.60
2018-12-15T09:36:44.891Z,1.70
2018-12-15T09:39:12.355Z,1.60
2018-12-15T09:41:39.950Z,1.60
2018-12-15T09:44:07.546Z,1.70
2018-12-15T09:46:35.119Z,1.60
2018-12-15T09:49:03.579Z,1.60
2018-12-15T09:51:35.541Z,1.60
2018-12-15T09:54:03.174Z,1.60
2018-12-15T09:56:30.627Z,1.60
2018-12-15T09:58:58.071Z,1.70
2018-12-15T10:01:25.603Z,1.60
2018-12-15T10:03:54.386Z,1.70
2018-12-15T10:06:21.893Z,1.70
2018-12-15T10:08:49.356Z,1.70
2018-12-15T10:11:16.803Z,1.90
2018-12-15T10:13:44.262Z,2.00
2018-12-15T10:16:11.706Z,1.90
2018-12-15T10:18:39.170Z,1.80
2018-12-15T10:21:06.619Z,1.80
2018-12-15T10:23:34.087Z,1.80
2018-12-15T10:26:01.519Z,1.70
2018-12-15T10:28:30.341Z,1.80
2018-12-15T10:31:05.419Z,1.80
2018-12-15T10:33:34.915Z,1.80
2018-12-15T10:36:03.570Z,1.80
2018-12-15T10:38:32.334Z,1.80
2018-12-15T10:41:01.010Z,1.70
2018-12-15T10:43:30.058Z,1.80
2018-12-15T10:45:59.899Z,1.80
2018-12-15T10:48:29.202Z,1.80
2018-12-15T10:51:02.039Z,1.90
2018-12-15T10:53:33.097Z,1.80
2018-12-15T10:56:02.040Z,1.80
2018-12-15T10:58:33.760Z,1.80
2018-12-15T11:01:09.323Z,1.80
2018-12-15T11:03:39.550Z,1.90
2018-12-15T11:06:12.118Z,1.80
2018-12-15T11:11:13.772Z,1.90
2018-12-15T11:13:45.522Z,2.00
2018-12-15T11:16:13.228Z,1.90
2018-12-15T11:18:41.254Z,1.90
2018-12-15T11:21:10.994Z,1.90
2018-12-15T11:23:41.004Z,1.90
2018-12-15T11:26:13.059Z,2.00
2018-12-15T11:28:41.028Z,2.00
2018-12-15T11:31:10.903Z,2.10
2018-12-15T11:33:40.775Z,2.10
2018-12-15T11:36:08.303Z,2.20
2018-12-15T11:38:37.206Z,2.20
2018-12-15T11:41:05.839Z,2.10
2018-12-15T11:43:35.759Z,2.10
2018-12-15T11:46:07.885Z,2.20
2018-12-15T11:48:37.499Z,2.20
2018-12-15T11:51:11.070Z,2.10
2018-12-15T11:53:39.251Z,2.20
2018-12-15T11:56:07.634Z,2.20
2018-12-15T11:58:37.990Z,2.30
2018-12-15T12:01:07.225Z,2.30
2018-12-15T12:03:37.855Z,2.30
2018-12-15T12:06:09.961Z,2.30
2018-12-15T12:08:38.655Z,2.30
2018-12-15T12:11:10.211Z,2.30
2018-12-15T12:13:38.058Z,2.30
2018-12-15T12:16:07.257Z,2.30
2018-12-15T12:18:37.425Z,2.30
2018-12-15T12:21:08.758Z,2.20
2018-12-15T12:23:38.745Z,2.20
2018-12-15T12:26:11.205Z,2.20
2018-12-15T12:28:42.166Z,2.10
2018-12-15T12:31:10.178Z,2.20
2018-12-15T12:33:40.702Z,2.20
2018-12-15T12:36:09.687Z,2.20
2018-12-15T12:38:38.932Z,2.20
2018-12-15T12:41:06.976Z,2.20
2018-12-15T12:43:35.428Z,2.20
2018-12-15T12:46:08.468Z,2.20
2018-12-15T12:48:38.421Z,2.20
2018-12-15T12:51:06.832Z,2.30
2018-12-15T12:53:34.278Z,2.30
2018-12-15T12:56:01.787Z,2.30
2018-12-15T12:58:29.243Z,2.30
2018-12-15T13:00:56.676Z,2.30
2018-12-15T13:03:24.158Z,2.40
2018-12-15T13:05:51.597Z,2.40
2018-12-15T13:08:19.044Z,2.40
2018-12-15T13:10:46.501Z,2.40
2018-12-15T13:13:13.954Z,2.30
2018-12-15T13:15:41.399Z,2.40
2018-12-15T13:18:08.845Z,2.40
2018-12-15T13:20:36.314Z,2.40
2018-12-15T13:23:03.750Z,2.40
2018-12-15T13:25:31.194Z,2.50
2018-12-15T13:27:58.651Z,2.50
2018-12-15T13:30:26.272Z,2.50
2018-12-15T13:32:53.706Z,2.40
2018-12-15T13:35:21.239Z,2.30
2018-12-15T13:37:48.751Z,2.30
2018-12-15T13:40:16.202Z,2.30
2018-12-15T13:42:43.649Z,2.30
2018-12-15T13:45:11.560Z,2.30
2018-12-15T13:47:39.010Z,2.30
2018-12-15T13:50:10.273Z,2.30
2018-12-15T13:52:36.996Z,2.20
2018-12-15T13:55:04.903Z,2.30
2018-12-15T13:57:32.352Z,2.30
2018-12-15T14:00:00.574Z,2.20
2018-12-15T14:02:28.717Z,2.20
2018-12-15T14:04:56.165Z,2.20
2018-12-15T14:07:23.603Z,2.20
2018-12-15T14:09:51.054Z,2.20
2018-12-15T14:12:18.707Z,2.20
2018-12-15T14:14:46.203Z,2.20
2018-12-15T14:17:13.641Z,2.20
2018-12-15T14:19:41.088Z,2.10
2018-12-15T14:22:08.640Z,2.20
2018-12-15T14:24:36.083Z,2.20
2018-12-15T14:27:03.599Z,2.10
2018-12-15T14:29:31.033Z,2.10
2018-12-15T14:31:58.490Z,2.10
2018-12-15T14:34:25.939Z,2.10
2018-12-15T14:36:53.397Z,2.10
2018-12-15T14:39:20.894Z,2.10
2018-12-15T14:41:48.349Z,2.00
2018-12-15T14:44:16.791Z,2.10
2018-12-15T14:46:44.255Z,2.00
2018-12-15T14:49:11.693Z,1.90
2018-12-15T14:51:39.219Z,1.80
2018-12-15T14:54:06.655Z,1.70
2018-12-15T14:56:34.336Z,1.70
2018-12-15T14:59:01.795Z,1.60
2018-12-15T15:01:29.241Z,1.50
2018-12-15T15:03:56.696Z,1.50
2018-12-15T15:06:24.146Z,1.50
2018-12-15T15:08:51.575Z,1.40
2018-12-15T15:11:19.127Z,1.50
2018-12-15T15:13:46.580Z,1.40
2018-12-15T15:16:14.007Z,1.40
2018-12-15T15:18:41.463Z,1.30
2018-12-15T15:21:08.910Z,1.30
2018-12-15T15:23:36.373Z,1.30
2018-12-15T15:26:03.815Z,1.30
2018-12-15T15:28:31.271Z,1.20
2018-12-15T15:30:59.654Z,1.30
2018-12-15T15:33:27.107Z,1.20
2018-12-15T15:35:54.547Z,1.20
2018-12-15T15:38:22.075Z,1.20
2018-12-15T15:40:49.518Z,1.20
2018-12-15T15:43:16.966Z,1.10
2018-12-15T15:45:44.411Z,1.00
2018-12-15T15:48:11.863Z,1.00
2018-12-15T15:50:39.311Z,1.00
2018-12-15T15:53:06.771Z,1.00
2018-12-15T15:55:34.276Z,1.00
2018-12-15T15:58:01.723Z,1.00
2018-12-15T16:00:29.198Z,1.00
2018-12-15T16:02:56.681Z,1.00
2018-12-15T16:05:24.183Z,1.00
2018-12-15T16:07:51.704Z,1.00
2018-12-15T16:10:19.157Z,1.00
2018-12-15T16:12:46.633Z,1.00
2018-12-15T16:15:14.212Z,1.00
2018-12-15T16:17:41.657Z,1.10
2018-12-15T16:20:10.172Z,1.10
2018-12-15T16:22:37.622Z,1.10
2018-12-15T16:25:05.199Z,1.10
2018-12-15T16:27:32.626Z,1.10
2018-12-15T16:30:00.087Z,1.00
2018-12-15T16:32:27.552Z,1.00
2018-12-15T16:34:55.022Z,0.90
2018-12-15T16:37:22.550Z,0.90
2018-12-15T16:39:49.998Z,1.00
2018-12-15T16:42:17.440Z,1.00
2018-12-15T16:44:44.949Z,1.00
2018-12-15T16:47:12.404Z,1.00
2018-12-15T16:49:39.981Z,0.90
2018-12-15T16:52:07.407Z,0.90
2018-12-15T16:54:34.876Z,0.90
2018-12-15T16:57:02.354Z,0.90
2018-12-15T16:59:29.818Z,0.90
2018-12-15T17:01:57.320Z,0.90
2018-12-15T17:04:24.776Z,0.80
2018-12-15T17:06:52.250Z,0.80
2018-12-15T17:09:19.797Z,0.80
2018-12-15T17:11:47.369Z,0.70
2018-12-15T17:14:15.378Z,0.70
2018-12-15T17:16:42.961Z,0.70
2018-12-15T17:19:10.444Z,0.70
2018-12-15T17:21:37.993Z,0.70
2018-12-15T17:24:05.438Z,0.70
2018-12-15T17:26:35.091Z,0.70
2018-12-15T17:29:02.613Z,0.70
2018-12-15T17:31:30.073Z,0.60
2018-12-15T17:33:57.787Z,0.60
2018-12-15T17:36:25.234Z,0.60
2018-12-15T17:38:52.687Z,0.70
2018-12-15T17:41:20.141Z,0.70
2018-12-15T17:43:47.634Z,0.60
2018-12-15T17:46:15.097Z,0.50
2018-12-15T17:48:42.529Z,0.50
2018-12-15T17:51:09.983Z,0.50
2018-12-15T17:53:37.462Z,0.60
2018-12-15T17:56:04.942Z,0.50
2018-12-15T18:01:06.201Z,0.40
2018-12-15T18:03:33.700Z,0.40
2018-12-15T18:06:01.182Z,0.50
2018-12-15T18:08:28.625Z,0.40
2018-12-15T18:10:56.078Z,0.40
2018-12-15T18:13:23.535Z,0.40
2018-12-15T18:15:51.130Z,0.40
2018-12-15T18:18:18.644Z,0.40
2018-12-15T18:20:46.102Z,0.40
2018-12-15T18:23:13.554Z,0.40
2018-12-15T18:25:41.024Z,0.30
2018-12-15T18:28:08.449Z,0.30
2018-12-15T18:30:35.901Z,0.30
2018-12-15T18:33:03.341Z,0.30
2018-12-15T18:35:31.033Z,0.30
2018-12-15T18:37:58.490Z,0.30
2018-12-15T18:40:25.939Z,0.30
2018-12-15T18:42:53.417Z,0.30
2018-12-15T18:45:20.868Z,0.30
2018-12-15T18:47:48.313Z,0.40
2018-12-15T18:50:15.753Z,0.30
2018-12-15T18:52:43.216Z,0.40
2018-12-15T18:55:10.667Z,0.50
2018-12-15T18:57:38.144Z,0.30
2018-12-15T19:00:07.618Z,0.30
2018-12-15T19:02:35.149Z,0.30
2018-12-15T19:05:02.623Z,0.30
2018-12-15T19:07:30.082Z,0.40
2018-12-15T19:09:57.533Z,0.30
2018-12-15T19:12:24.996Z,0.40
2018-12-15T19:14:52.437Z,0.40
2018-12-15T19:17:19.958Z,0.30
2018-12-15T19:19:47.434Z,0.30
2018-12-15T19:22:14.879Z,0.30
2018-12-15T19:24:42.322Z,0.30
2018-12-15T19:27:10.668Z,0.30
2018-12-15T19:29:38.117Z,0.30
2018-12-15T19:32:05.591Z,0.30
2018-12-15T19:34:33.111Z,0.30
2018-12-15T19:37:00.567Z,0.30
2018-12-15T19:39:28.020Z,0.30
2018-12-15T19:41:55.488Z,0.20
2018-12-15T19:44:22.939Z,0.30
2018-12-15T19:46:50.382Z,0.30
2018-12-15T19:49:17.834Z,0.30
2018-12-15T19:51:45.359Z,0.30
2018-12-15T19:54:12.887Z,0.30
2018-12-15T19:56:40.331Z,0.30
2018-12-15T19:59:09.758Z,0.20
2018-12-15T20:01:37.202Z,0.10
2018-12-15T20:04:04.654Z,0.20
2018-12-15T20:06:32.088Z,0.20
2018-12-15T20:08:59.544Z,0.30
2018-12-15T20:11:26.982Z,0.30
2018-12-15T20:13:54.434Z,0.30
2018-12-15T20:16:21.867Z,0.30
2018-12-15T20:18:49.317Z,0.30
2018-12-15T20:21:16.753Z,0.30
2018-12-15T20:23:44.206Z,0.30
2018-12-15T20:26:11.643Z,0.30
2018-12-15T20:28:39.118Z,0.30
2018-12-15T20:31:06.639Z,0.20
2018-12-15T20:33:34.100Z,0.30
2018-12-15T20:36:01.552Z,0.30
2018-12-15T20:38:29.006Z,0.30
2018-12-15T20:40:56.444Z,0.30
2018-12-15T20:43:23.890Z,0.30
2018-12-15T20:45:51.330Z,0.20
2018-12-15T20:48:23.795Z,0.20
2018-12-15T20:50:51.310Z,0.20
2018-12-15T20:53:20.710Z,0.30
2018-12-15T20:55:48.302Z,0.30
2018-12-15T20:58:15.814Z,0.30
2018-12-15T21:00:43.277Z,0.30
2018-12-15T21:03:10.735Z,0.30
2018-12-15T21:05:38.187Z,0.40
2018-12-15T21:08:05.623Z,0.40
2018-12-15T21:10:35.267Z,0.50
2018-12-15T21:13:02.726Z,0.50
2018-12-15T21:15:32.140Z,0.50
2018-12-15T21:17:59.584Z,0.50
2018-12-15T21:20:27.070Z,0.60
2018-12-15T21:22:54.680Z,0.60
2018-12-15T21:25:22.147Z,0.60
2018-12-15T21:27:49.676Z,0.60
2018-12-15T21:30:17.140Z,0.60
2018-12-15T21:32:45.581Z,0.70
2018-12-15T21:35:13.083Z,0.70
2018-12-15T21:37:40.533Z,0.70
2018-12-15T21:40:08.106Z,0.70
2018-12-15T21:42:35.547Z,0.70
2018-12-15T21:45:03.130Z,0.70
2018-12-15T21:47:30.570Z,0.70
2018-12-15T21:49:58.025Z,0.70
2018-12-15T21:52:25.469Z,0.70
2018-12-15T21:54:55.854Z,0.70
2018-12-15T21:57:24.341Z,0.70
2018-12-15T21:59:51.810Z,0.70
2018-12-15T22:02:19.268Z,0.70
2018-12-15T22:04:50.034Z,0.80
2018-12-15T22:07:18.190Z,0.70
2018-12-15T22:09:46.677Z,0.80
2018-12-15T22:12:14.442Z,0.70
2018-12-15T22:14:41.889Z,0.80
2018-12-15T22:17:09.508Z,0.70
2018-12-15T22:19:38.088Z,0.70
2018-12-15T22:22:05.526Z,0.70
2018-12-15T22:24:32.988Z,0.70
2018-12-15T22:27:00.444Z,0.70
2018-12-15T22:29:27.974Z,0.70
2018-12-15T22:31:55.432Z,0.80
2018-12-15T22:34:22.871Z,0.70
2018-12-15T22:36:50.334Z,0.80
2018-12-15T22:39:17.774Z,0.70
2018-12-15T22:41:45.250Z,0.70
2018-12-15T22:44:12.736Z,0.70
2018-12-15T22:46:40.182Z,0.70
2018-12-15T22:49:07.627Z,0.70
2018-12-15T22:51:35.491Z,0.70
2018-12-15T22:54:02.967Z,0.70
2018-12-15T22:56:30.423Z,0.70
2018-12-15T22:58:57.858Z,0.70
2018-12-15T23:01:25.384Z,0.80
2018-12-15T23:03:52.831Z,0.70
2018-12-15T23:06:20.278Z,0.70
2018-12-15T23:08:47.718Z,0.80
2018-12-15T23:11:15.170Z,0.80
2018-12-15T23:13:42.602Z,0.80
2018-12-15T23:16:10.062Z,0.80
2018-12-15T23:18:37.519Z,0.80
2018-12-15T23:21:04.971Z,0.80
2018-12-15T23:23:32.411Z,0.80
2018-12-15T23:25:59.880Z,0.80
2018-12-15T23:28:27.318Z,0.80
2018-12-15T23:30:55.652Z,0.80
2018-12-15T23:33:23.099Z,0.80
2018-12-15T23:35:50.559Z,0.80
2018-12-15T23:38:17.994Z,0.80
2018-12-15T23:40:45.454Z,0.90
2018-12-15T23:43:12.898Z,0.90
2018-12-15T23:45:41.294Z,0.90
2018-12-15T23:48:09.675Z,0.90
2018-12-15T23:50:37.113Z,0.90
2018-12-15T23:53:04.567Z,0.90
2018-12-15T23:55:32.007Z,0.80
2018-12-15T23:58:00.359Z,0.80
